createdAt,value
2022-09-06T00:01:14.720Z,100955.19
2022-09-06T00:03:43.636Z,100954.34
2022-09-06T00:06:14.729Z,100947.34
2022-09-06T00:08:45.907Z,100948.22
2022-09-06T00:11:15.199Z,100942.16
2022-09-06T00:13:45.044Z,100945.69
2022-09-06T00:16:16.272Z,100944.94
2022-09-06T00:18:45.498Z,100943.25
2022-09-06T00:21:21.240Z,100949.53
2022-09-06T00:23:51.807Z,100941.69
2022-09-06T00:26:21.766Z,100942.69
2022-09-06T00:28:50.853Z,100950.66
2022-09-06T00:31:21.102Z,100945.50
2022-09-06T00:33:50.152Z,100945.56
2022-09-06T00:36:19.128Z,100935.19
2022-09-06T00:38:47.978Z,100934.47
2022-09-06T00:41:19.333Z,100940.69
2022-09-06T00:43:48.237Z,100940.75
2022-09-06T00:46:19.345Z,100945.19
2022-09-06T00:48:49.969Z,100950.44
2022-09-06T00:51:19.472Z,100946.91
2022-09-06T00:53:48.034Z,100946.84
2022-09-06T00:56:18.391Z,100939.00
2022-09-06T00:58:48.240Z,100947.81
2022-09-06T01:01:17.711Z,100942.59
2022-09-06T01:03:46.692Z,100947.81
2022-09-06T01:06:24.765Z,100953.97
2022-09-06T01:09:03.381Z,100950.56
2022-09-06T01:11:51.137Z,100945.44
2022-09-06T01:14:32.730Z,100953.31
2022-09-06T01:17:08.789Z,100949.81
2022-09-06T01:20:05.626Z,100944.63
2022-09-06T01:23:05.793Z,100939.44
2022-09-06T01:25:45.060Z,100937.84
2022-09-06T01:28:29.264Z,100933.56
2022-09-06T01:31:06.979Z,100948.38
2022-09-06T01:33:43.525Z,100945.91
2022-09-06T01:36:18.172Z,100940.75
2022-09-06T01:38:46.821Z,100944.25
2022-09-06T01:41:15.755Z,100946.84
2022-09-06T01:43:49.913Z,100948.81
2022-09-06T01:46:27.327Z,100948.91
2022-09-06T01:49:16.664Z,100955.16
2022-09-06T01:51:59.693Z,100950.00
2022-09-06T01:54:42.867Z,100953.72
2022-09-06T01:57:24.079Z,100954.72
2022-09-06T02:00:06.488Z,100952.84
2022-09-06T02:03:05.357Z,100953.84
2022-09-06T02:05:40.643Z,100942.00
2022-09-06T02:08:14.219Z,100949.84
2022-09-06T02:10:47.399Z,100946.44
2022-09-06T02:13:18.761Z,100942.88
2022-09-06T02:15:55.023Z,100941.13
2022-09-06T02:18:29.841Z,100944.56
2022-09-06T02:21:00.613Z,100950.66
2022-09-06T02:23:34.952Z,100943.72
2022-09-06T02:26:09.957Z,100951.53
2022-09-06T02:28:38.485Z,100947.16
2022-09-06T02:31:14.262Z,100946.34
2022-09-06T02:33:47.133Z,100949.78
2022-09-06T02:36:16.902Z,100947.28
2022-09-06T02:38:46.879Z,100943.81
2022-09-06T02:41:19.545Z,100945.59
2022-09-06T02:43:48.132Z,100950.88
2022-09-06T02:46:18.093Z,100942.25
2022-09-06T02:48:47.104Z,100939.63
2022-09-06T02:51:15.555Z,100939.63
2022-09-06T02:53:44.166Z,100941.41
2022-09-06T02:56:13.326Z,100943.16
2022-09-06T02:58:41.839Z,100940.56
2022-09-06T03:01:10.629Z,100943.22
2022-09-06T03:03:41.013Z,100938.03
2022-09-06T03:06:12.358Z,100940.69
2022-09-06T03:08:40.861Z,100936.47
2022-09-06T03:11:09.326Z,100939.22
2022-09-06T03:13:38.048Z,100940.28
2022-09-06T03:16:06.803Z,100934.28
2022-09-06T03:18:35.856Z,100932.66
2022-09-06T03:21:07.627Z,100928.38
2022-09-06T03:23:36.271Z,100937.13
2022-09-06T03:26:04.892Z,100928.50
2022-09-06T03:28:33.730Z,100930.25
2022-09-06T03:31:02.426Z,100921.56
2022-09-06T03:33:33.664Z,100924.22
2022-09-06T03:36:04.498Z,100927.78
2022-09-06T03:38:34.897Z,100938.22
2022-09-06T03:41:04.001Z,100939.06
2022-09-06T03:43:33.064Z,100947.03
2022-09-06T03:46:02.650Z,100951.38
2022-09-06T03:48:31.480Z,100945.28
2022-09-06T03:51:00.782Z,100941.00
2022-09-06T03:53:30.896Z,100945.34
2022-09-06T03:56:01.808Z,100938.41
2022-09-06T03:58:32.596Z,100943.53
2022-09-06T04:01:04.640Z,100945.25
2022-09-06T04:03:33.715Z,100932.16
2022-09-06T04:06:03.163Z,100933.88
2022-09-06T04:08:32.465Z,100932.16
2022-09-06T04:11:03.105Z,100923.50
2022-09-06T04:13:32.790Z,100926.16
2022-09-06T04:16:01.835Z,100924.44
2022-09-06T04:18:31.016Z,100927.09
2022-09-06T04:20:59.885Z,100922.72
2022-09-06T04:23:35.239Z,100928.81
2022-09-06T04:26:08.129Z,100923.69
2022-09-06T04:28:37.287Z,100928.03
2022-09-06T04:31:07.988Z,100931.50
2022-09-06T04:33:38.754Z,100933.19
2022-09-06T04:36:09.736Z,100940.91
2022-09-06T04:38:42.240Z,100939.00
2022-09-06T04:41:13.340Z,100953.75
2022-09-06T04:43:41.952Z,100949.34
2022-09-06T04:46:15.889Z,100937.19
2022-09-06T04:48:44.626Z,100944.13
2022-09-06T04:51:13.060Z,100944.97
2022-09-06T04:53:42.311Z,100937.13
2022-09-06T04:56:18.061Z,100949.28
2022-09-06T04:58:48.614Z,100936.19
2022-09-06T05:01:18.387Z,100943.91
2022-09-06T05:03:47.525Z,100941.25
2022-09-06T05:06:22.032Z,100944.56
2022-09-06T05:08:50.593Z,100940.06
2022-09-06T05:11:21.613Z,100934.69
2022-09-06T05:13:50.772Z,100933.66
2022-09-06T05:16:19.952Z,100929.09
2022-09-06T05:18:49.121Z,100933.25
2022-09-06T05:21:17.718Z,100929.53
2022-09-06T05:23:47.265Z,100938.97
2022-09-06T05:26:18.317Z,100930.03
2022-09-06T05:28:48.249Z,100936.75
2022-09-06T05:31:27.870Z,100931.38
2022-09-06T05:33:57.608Z,100927.69
2022-09-06T05:36:28.112Z,100937.09
2022-09-06T05:38:58.030Z,100933.38
2022-09-06T05:41:27.657Z,100941.84
2022-09-06T05:43:57.760Z,100941.66
2022-09-06T05:46:27.436Z,100944.06
2022-09-06T05:49:01.514Z,100945.69
2022-09-06T05:51:30.323Z,100937.56
2022-09-06T05:53:58.910Z,100946.06
2022-09-06T05:56:27.539Z,100942.31
2022-09-06T05:58:57.705Z,100936.75
2022-09-06T06:01:28.217Z,100942.47
2022-09-06T06:03:59.144Z,100937.75
2022-09-06T06:06:29.583Z,100951.13
2022-09-06T06:08:58.962Z,100934.72
2022-09-06T06:11:29.767Z,100934.13
2022-09-06T06:14:00.202Z,100941.31
2022-09-06T06:16:29.371Z,100945.22
2022-09-06T06:18:57.763Z,100948.25
2022-09-06T06:21:28.569Z,100949.38
2022-09-06T06:23:59.637Z,100947.06
2022-09-06T06:26:30.127Z,100954.34
2022-09-06T06:29:02.325Z,100952.78
2022-09-06T06:31:31.910Z,100953.03
2022-09-06T06:34:03.369Z,100954.06
2022-09-06T06:36:34.790Z,100956.00
2022-09-06T06:39:05.495Z,100955.34
2022-09-06T06:41:34.722Z,100955.69
2022-09-06T06:44:06.587Z,100956.81
2022-09-06T06:46:37.336Z,100964.75
2022-09-06T06:49:06.657Z,100957.91
2022-09-06T06:51:37.484Z,100954.47
2022-09-06T06:54:06.737Z,100956.28
2022-09-06T06:56:37.044Z,100968.66
2022-09-06T06:59:08.624Z,100972.31
2022-09-06T07:01:37.884Z,100973.31
2022-09-06T07:04:08.837Z,100964.59
2022-09-06T07:12:27.209Z,100963.09
2022-09-06T07:14:57.625Z,100963.81
2022-09-06T07:17:26.354Z,100969.00
2022-09-06T07:22:44.381Z,100976.75
2022-09-06T07:25:16.506Z,100984.06
2022-09-06T07:27:50.207Z,100976.41
2022-09-06T07:30:21.697Z,100974.06
2022-09-06T07:32:50.620Z,100975.72
2022-09-06T07:35:20.612Z,100972.38
2022-09-06T07:37:56.665Z,100980.97
2022-09-06T07:40:25.741Z,100974.56
2022-09-06T07:42:54.734Z,100984.06
2022-09-06T07:45:25.224Z,100981.19
2022-09-06T07:47:59.207Z,100981.84
2022-09-06T07:50:47.522Z,100980.88
2022-09-06T07:53:25.981Z,100988.00
2022-09-06T07:55:58.219Z,100992.59
2022-09-06T07:58:27.167Z,101004.84
2022-09-06T08:01:16.624Z,100994.72
2022-09-06T08:03:47.916Z,100993.59
2022-09-06T08:06:20.787Z,100996.72
2022-09-06T08:11:31.285Z,100989.59
2022-09-06T08:14:01.467Z,100981.47
2022-09-06T08:16:32.756Z,100987.88
2022-09-06T08:19:02.564Z,100994.16
2022-09-06T08:21:33.128Z,100980.41
2022-09-06T08:24:03.134Z,100985.81
2022-09-06T08:26:33.633Z,100982.41
2022-09-06T08:29:03.824Z,100978.91
2022-09-06T08:31:39.742Z,100975.84
2022-09-06T08:34:09.606Z,100979.09
2022-09-06T08:36:38.489Z,100982.31
2022-09-06T08:39:09.446Z,100977.13
2022-09-06T08:41:50.194Z,100966.16
2022-09-06T08:47:14.397Z,100967.25
2022-09-06T08:49:45.311Z,100962.03
2022-09-06T08:52:45.400Z,100963.34
2022-09-06T08:55:32.405Z,100958.41
2022-09-06T08:58:17.298Z,100953.28
2022-09-06T09:00:51.500Z,100953.16
2022-09-06T09:03:25.814Z,100949.06
2022-09-06T09:05:55.384Z,100947.88
2022-09-06T09:08:30.714Z,100945.97
2022-09-06T09:11:03.359Z,100939.91
2022-09-06T09:13:36.472Z,100947.81
2022-09-06T09:16:06.500Z,100929.22
2022-09-06T09:18:41.310Z,100940.03
2022-09-06T09:21:11.548Z,100934.44
2022-09-06T09:23:40.500Z,100935.63
2022-09-06T09:26:14.353Z,100926.41
2022-09-06T09:29:03.911Z,100923.22
2022-09-06T09:31:37.308Z,100924.03
2022-09-06T09:34:11.681Z,100922.41
2022-09-06T09:36:41.427Z,100924.63
2022-09-06T09:39:11.804Z,100913.38
2022-09-06T09:41:44.456Z,100909.78
2022-09-06T09:44:20.227Z,100904.44
2022-09-06T09:46:49.899Z,100900.38
2022-09-06T09:49:30.733Z,100901.66
2022-09-06T09:52:07.767Z,100907.66
2022-09-06T09:54:41.823Z,100905.13
2022-09-06T09:57:12.200Z,100893.28
2022-09-06T09:59:46.401Z,100897.56
2022-09-06T10:02:22.470Z,100897.97
2022-09-06T10:05:00.838Z,100885.44
2022-09-06T10:07:29.996Z,100884.72
2022-09-06T10:10:01.353Z,100886.22
2022-09-06T10:12:30.681Z,100880.47
2022-09-06T10:15:02.427Z,100880.31
2022-09-06T10:17:35.479Z,100879.63
2022-09-06T10:20:10.866Z,100879.34
2022-09-06T10:22:52.020Z,100874.66
2022-09-06T10:25:39.708Z,100883.59
2022-09-06T10:28:30.116Z,100877.00
2022-09-06T10:31:27.447Z,100877.72
2022-09-06T10:34:08.253Z,100862.72
2022-09-06T10:36:41.575Z,100865.91
2022-09-06T10:39:20.239Z,100861.06
2022-09-06T10:41:59.262Z,100873.41
2022-09-06T10:44:47.250Z,100861.91
2022-09-06T10:47:18.682Z,100860.19
2022-09-06T10:49:52.261Z,100856.56
2022-09-06T10:52:26.943Z,100860.41
2022-09-06T10:55:02.285Z,100848.78
2022-09-06T11:00:25.710Z,100841.16
2022-09-06T11:05:54.935Z,100840.16
2022-09-06T11:08:46.765Z,100832.41
2022-09-06T11:11:23.396Z,100830.34
2022-09-06T11:13:52.241Z,100817.63
2022-09-06T11:16:26.757Z,100833.94
2022-09-06T11:19:00.182Z,100821.66
2022-09-06T11:22:04.062Z,100820.84
2022-09-06T11:24:50.114Z,100824.16
2022-09-06T11:27:27.089Z,100820.38
2022-09-06T11:29:57.672Z,100820.75
2022-09-06T11:32:34.376Z,100818.84
2022-09-06T11:35:07.453Z,100811.47
2022-09-06T11:37:39.907Z,100808.66
2022-09-06T11:43:20.329Z,100803.81
2022-09-06T11:45:51.355Z,100801.88
2022-09-06T11:48:58.321Z,100794.03
2022-09-06T11:51:36.473Z,100788.53
2022-09-06T11:54:18.394Z,100786.44
2022-09-06T11:56:56.238Z,100781.97
2022-09-06T11:59:44.691Z,100776.69
2022-09-06T12:02:33.099Z,100781.28
2022-09-06T12:05:29.395Z,100773.78
2022-09-06T12:08:29.386Z,100775.34
2022-09-06T12:11:27.070Z,100769.22
2022-09-06T12:14:03.768Z,100773.13
2022-09-06T12:17:26.295Z,100766.31
2022-09-06T12:19:55.838Z,100767.00
2022-09-06T12:22:53.151Z,100782.09
2022-09-06T12:26:08.196Z,100773.19
2022-09-06T12:28:45.359Z,100768.56
2022-09-06T12:31:36.194Z,100757.84
2022-09-06T12:34:13.106Z,100765.00
2022-09-06T12:36:52.470Z,100759.81
2022-09-06T12:39:22.516Z,100756.34
2022-09-06T12:41:55.181Z,100757.44
2022-09-06T12:44:31.917Z,100755.63
2022-09-06T12:47:07.797Z,100755.50
2022-09-06T12:49:38.656Z,100749.75
2022-09-06T12:52:12.994Z,100751.25
2022-09-06T12:54:50.463Z,100752.03
2022-09-06T12:57:21.658Z,100750.13
2022-09-06T12:59:53.912Z,100750.44
2022-09-06T13:02:31.835Z,100755.00
2022-09-06T13:05:06.800Z,100745.06
2022-09-06T13:07:42.752Z,100745.56
2022-09-06T13:10:14.002Z,100737.03
2022-09-06T13:12:46.251Z,100743.00
2022-09-06T13:15:20.210Z,100740.50
2022-09-06T13:17:50.736Z,100735.78
2022-09-06T13:20:26.905Z,100731.91
2022-09-06T13:23:06.854Z,100736.47
2022-09-06T13:25:36.019Z,100733.47
2022-09-06T13:28:05.306Z,100726.66
2022-09-06T13:30:37.996Z,100713.91
2022-09-06T13:33:10.356Z,100715.19
2022-09-06T13:35:39.889Z,100718.31
2022-09-06T13:38:23.142Z,100721.56
2022-09-06T13:41:10.960Z,100717.66
2022-09-06T13:43:46.467Z,100716.31
2022-09-06T13:46:16.511Z,100717.44
2022-09-06T13:48:46.886Z,100710.13
2022-09-06T13:51:15.930Z,100706.50
2022-09-06T13:53:45.176Z,100705.25
2022-09-06T13:56:14.257Z,100721.25
2022-09-06T13:58:45.349Z,100712.50
2022-09-06T14:01:15.029Z,100708.91
2022-09-06T14:03:44.859Z,100712.31
2022-09-06T14:06:15.377Z,100708.09
2022-09-06T14:09:06.001Z,100702.72
2022-09-06T14:11:33.728Z,100697.34
2022-09-06T14:14:02.618Z,100694.50
2022-09-06T14:16:32.076Z,100704.84
2022-09-06T14:19:00.601Z,100701.16
2022-09-06T14:21:30.774Z,100694.22
2022-09-06T14:24:03.908Z,100693.88
2022-09-06T14:26:34.269Z,100690.69
2022-09-06T14:29:03.304Z,100694.69
2022-09-06T14:31:34.038Z,100689.03
2022-09-06T14:34:04.308Z,100688.00
2022-09-06T14:36:35.450Z,100688.28
2022-09-06T14:39:05.888Z,100687.13
2022-09-06T14:41:36.558Z,100684.13
2022-09-06T14:44:10.261Z,100685.94
2022-09-06T14:46:42.829Z,100688.59
2022-09-06T14:49:12.698Z,100677.72
2022-09-06T14:51:43.513Z,100677.25
2022-09-06T14:54:14.743Z,100672.88
2022-09-06T14:56:44.362Z,100681.44
2022-09-06T14:59:13.709Z,100675.72
2022-09-06T15:01:42.970Z,100667.47
2022-09-06T15:04:12.357Z,100662.59
2022-09-06T15:06:47.362Z,100660.72
2022-09-06T15:09:16.488Z,100661.41
2022-09-06T15:11:48.023Z,100657.34
2022-09-06T15:14:18.999Z,100654.13
2022-09-06T15:16:55.919Z,100654.41
2022-09-06T15:19:27.467Z,100650.41
2022-09-06T15:21:58.567Z,100647.44
2022-09-06T15:24:27.455Z,100643.28
2022-09-06T15:26:56.402Z,100642.78
2022-09-06T15:29:25.264Z,100644.69
2022-09-06T15:31:54.841Z,100642.03
2022-09-06T15:34:26.955Z,100645.34
2022-09-06T15:37:00.443Z,100633.63
2022-09-06T15:39:28.999Z,100630.00
2022-09-06T15:41:58.384Z,100636.53
2022-09-06T15:44:27.205Z,100635.94
2022-09-06T15:47:00.454Z,100634.69
2022-09-06T15:49:32.341Z,100623.31
2022-09-06T15:52:03.975Z,100625.03
2022-09-06T15:54:50.222Z,100619.84
2022-09-06T15:57:20.019Z,100617.81
2022-09-06T15:59:49.354Z,100617.31
2022-09-06T16:02:20.329Z,100613.59
2022-09-06T16:04:49.119Z,100616.88
2022-09-06T16:07:19.877Z,100611.41
2022-09-06T16:09:48.906Z,100607.88
2022-09-06T16:12:17.760Z,100609.47
2022-09-06T16:14:47.144Z,100617.00
2022-09-06T16:17:15.970Z,100612.94
2022-09-06T16:19:45.683Z,100616.00
2022-09-06T16:22:15.297Z,100613.72
2022-09-06T16:24:46.147Z,100609.72
2022-09-06T16:27:14.988Z,100615.31
2022-09-06T16:29:45.521Z,100608.72
2022-09-06T16:32:14.448Z,100608.34
2022-09-06T16:34:43.002Z,100604.38
2022-09-06T16:37:11.644Z,100605.53
2022-09-06T16:39:40.443Z,100604.28
2022-09-06T16:42:11.417Z,100605.66
2022-09-06T16:44:40.382Z,100612.38
2022-09-06T16:47:11.659Z,100611.38
2022-09-06T16:49:42.452Z,100614.81
2022-09-06T16:52:11.313Z,100608.44
2022-09-06T16:54:40.190Z,100616.13
2022-09-06T16:57:08.736Z,100612.53
2022-09-06T16:59:38.779Z,100609.97
2022-09-06T17:02:07.814Z,100614.25
2022-09-06T17:04:37.413Z,100618.56
2022-09-06T17:07:06.275Z,100619.50
2022-09-06T17:09:35.572Z,100615.19
2022-09-06T17:12:05.089Z,100610.88
2022-09-06T17:14:33.792Z,100611.84
2022-09-06T17:17:05.704Z,100619.88
2022-09-06T17:19:40.707Z,100619.44
2022-09-06T17:22:11.304Z,100609.16
2022-09-06T17:24:40.669Z,100622.03
2022-09-06T17:27:10.645Z,100614.59
2022-09-06T17:29:40.302Z,100619.22
2022-09-06T17:32:11.177Z,100621.13
2022-09-06T17:34:40.346Z,100624.09
2022-09-06T17:37:09.328Z,100624.59
2022-09-06T17:39:38.039Z,100625.94
2022-09-06T17:42:07.570Z,100627.09
2022-09-06T17:44:36.285Z,100627.44
2022-09-06T17:47:12.938Z,100627.72
2022-09-06T17:49:44.008Z,100630.53
2022-09-06T17:52:13.780Z,100627.28
2022-09-06T17:54:42.553Z,100633.44
2022-09-06T17:57:11.053Z,100633.50
2022-09-06T17:59:39.621Z,100630.13
2022-09-06T18:02:09.014Z,100639.19
2022-09-06T18:04:37.912Z,100640.44
2022-09-06T18:07:07.796Z,100637.31
2022-09-06T18:09:37.146Z,100640.28
2022-09-06T18:12:06.996Z,100626.59
2022-09-06T18:14:35.647Z,100621.66
2022-09-06T18:17:05.001Z,100628.81
2022-09-06T18:19:33.694Z,100636.19
2022-09-06T18:22:02.547Z,100635.88
2022-09-06T18:24:32.893Z,100642.50
2022-09-06T18:27:03.261Z,100648.16
2022-09-06T18:29:31.693Z,100644.31
2022-09-06T18:32:00.591Z,100646.44
2022-09-06T18:34:29.086Z,100644.25
2022-09-06T18:36:57.562Z,100646.44
2022-09-06T18:39:26.575Z,100650.31
2022-09-06T18:42:04.161Z,100652.38
2022-09-06T18:44:34.342Z,100653.66
2022-09-06T18:47:05.810Z,100657.69
2022-09-06T18:49:35.038Z,100655.78
2022-09-06T18:52:04.570Z,100652.91
2022-09-06T18:54:34.098Z,100655.06
2022-09-06T18:57:04.454Z,100655.72
2022-09-06T18:59:33.501Z,100659.06
2022-09-06T19:02:02.049Z,100653.50
2022-09-06T19:04:33.642Z,100650.59
2022-09-06T19:07:03.058Z,100652.84
2022-09-06T19:09:31.903Z,100646.25
2022-09-06T19:12:02.160Z,100654.19
2022-09-06T19:14:33.792Z,100646.16
2022-09-06T19:17:02.929Z,100651.28
2022-09-06T19:19:31.801Z,100652.00
2022-09-06T19:22:00.502Z,100650.41
2022-09-06T19:24:29.154Z,100647.97
2022-09-06T19:26:57.889Z,100648.34
2022-09-06T19:29:27.724Z,100643.47
2022-09-06T19:31:57.744Z,100645.63
2022-09-06T19:34:27.091Z,100645.19
2022-09-06T19:36:57.530Z,100655.72
2022-09-06T19:39:32.366Z,100649.84
2022-09-06T19:42:03.620Z,100640.13
2022-09-06T19:44:32.717Z,100643.59
2022-09-06T19:47:03.061Z,100640.28
2022-09-06T19:49:31.960Z,100635.38
2022-09-06T19:52:01.923Z,100642.56
2022-09-06T19:54:30.548Z,100634.78
2022-09-06T19:57:00.633Z,100634.69
2022-09-06T19:59:29.598Z,100630.28
2022-09-06T20:01:58.026Z,100635.66
2022-09-06T20:04:29.611Z,100634.22
2022-09-06T20:06:58.289Z,100632.88
2022-09-06T20:09:26.827Z,100632.47
2022-09-06T20:11:55.298Z,100631.16
2022-09-06T20:14:24.617Z,100637.59
2022-09-06T20:16:53.458Z,100643.00
2022-09-06T20:19:22.018Z,100632.84
2022-09-06T20:21:52.435Z,100632.25
2022-09-06T20:24:21.348Z,100636.06
2022-09-06T20:26:52.465Z,100641.47
2022-09-06T20:29:21.608Z,100638.13
2022-09-06T20:31:50.457Z,100630.41
2022-09-06T20:34:19.792Z,100639.06
2022-09-06T20:36:49.400Z,100637.31
2022-09-06T20:39:19.307Z,100634.81
2022-09-06T20:41:47.723Z,100634.13
2022-09-06T20:44:16.613Z,100629.72
2022-09-06T20:46:45.245Z,100628.72
2022-09-06T20:49:15.934Z,100627.72
2022-09-06T20:51:44.496Z,100631.25
2022-09-06T20:54:14.125Z,100632.25
2022-09-06T20:56:44.425Z,100623.69
2022-09-06T20:59:14.397Z,100629.22
2022-09-06T21:01:44.830Z,100633.00
2022-09-06T21:04:15.757Z,100633.09
2022-09-06T21:06:45.949Z,100636.72
2022-09-06T21:09:16.105Z,100632.63
2022-09-06T21:11:46.607Z,100625.78
2022-09-06T21:14:15.356Z,100626.78
2022-09-06T21:16:43.881Z,100629.59
2022-09-06T21:19:13.619Z,100629.94
2022-09-06T21:21:42.640Z,100629.28
2022-09-06T21:24:12.301Z,100625.16
2022-09-06T21:26:43.051Z,100632.25
2022-09-06T21:29:13.308Z,100630.53
2022-09-06T21:31:41.713Z,100629.75
2022-09-06T21:34:16.881Z,100630.72
2022-09-06T21:36:46.146Z,100624.03
2022-09-06T21:39:16.377Z,100625.88
2022-09-06T21:41:46.668Z,100619.13
2022-09-06T21:44:16.597Z,100614.88
2022-09-06T21:46:45.185Z,100614.09
2022-09-06T21:49:15.117Z,100619.38
2022-09-06T21:51:44.086Z,100615.28
2022-09-06T21:54:12.694Z,100613.66
2022-09-06T21:56:41.724Z,100617.22
2022-09-06T21:59:11.275Z,100616.41
2022-09-06T22:01:43.934Z,100625.19
2022-09-06T22:04:14.257Z,100621.03
2022-09-06T22:06:43.088Z,100625.34
2022-09-06T22:09:13.505Z,100617.56
2022-09-06T22:11:44.472Z,100615.00
2022-09-06T22:14:15.365Z,100623.75
2022-09-06T22:16:45.226Z,100630.78
2022-09-06T22:19:15.473Z,100622.97
2022-09-06T22:21:43.949Z,100622.19
2022-09-06T22:24:14.410Z,100618.72
2022-09-06T22:26:43.631Z,100621.34
2022-09-06T22:29:15.648Z,100632.69
2022-09-06T22:31:46.292Z,100623.22
2022-09-06T22:34:14.927Z,100627.72
2022-09-06T22:36:43.850Z,100620.91
2022-09-06T22:39:12.439Z,100622.78
2022-09-06T22:41:41.282Z,100622.97
2022-09-06T22:44:09.645Z,100617.97
2022-09-06T22:46:40.121Z,100623.34
2022-09-06T22:49:10.125Z,100625.22
2022-09-06T22:51:39.054Z,100619.19
2022-09-06T22:54:07.699Z,100619.38
2022-09-06T22:56:36.552Z,100613.38
2022-09-06T22:59:06.610Z,100611.78
2022-09-06T23:01:39.321Z,100615.34
2022-09-06T23:04:11.187Z,100615.50
2022-09-06T23:06:39.604Z,100606.00
2022-09-06T23:09:09.205Z,100612.09
2022-09-06T23:11:37.702Z,100605.06
2022-09-06T23:14:06.260Z,100604.16
2022-09-06T23:16:34.820Z,100609.44
2022-09-06T23:19:04.095Z,100606.00
2022-09-06T23:21:34.302Z,100606.88
2022-09-06T23:24:03.054Z,100606.03
2022-09-06T23:26:33.240Z,100605.22
2022-09-06T23:29:02.328Z,100611.25
2022-09-06T23:31:32.677Z,100612.97
2022-09-06T23:34:02.582Z,100609.31
2022-09-06T23:36:31.370Z,100604.91
2022-09-06T23:39:02.260Z,100596.34
2022-09-06T23:41:31.124Z,100593.78
2022-09-06T23:44:00.561Z,100591.28
2022-09-06T23:46:29.601Z,100587.94
2022-09-06T23:48:59.430Z,100589.69
2022-09-06T23:51:27.820Z,100576.75
2022-09-06T23:53:56.462Z,100574.16
2022-09-06T23:56:26.235Z,100581.22
2022-09-06T23:58:55.215Z,100581.28
